createdAt,value
2018-11-29T00:00:08.741Z,7.24
2018-11-29T00:01:09.032Z,7.29
2018-11-29T00:02:08.731Z,7.21
2018-11-29T00:03:08.710Z,7.22
2018-11-29T00:04:08.699Z,7.28
2018-11-29T00:05:08.688Z,7.31
2018-11-29T00:06:08.675Z,7.36
2018-11-29T00:07:08.709Z,7.33
2018-11-29T00:08:08.660Z,7.33
2018-11-29T00:09:08.644Z,7.28
2018-11-29T00:10:08.631Z,7.31
2018-11-29T00:11:08.669Z,7.26
2018-11-29T00:12:08.610Z,7.29
2018-11-29T00:13:08.606Z,7.31
2018-11-29T00:14:08.589Z,7.37
2018-11-29T00:15:08.579Z,7.25
2018-11-29T00:16:08.569Z,7.26
2018-11-29T00:17:08.846Z,7.22
2018-11-29T00:18:08.547Z,7.24
2018-11-29T00:19:08.538Z,7.18
2018-11-29T00:20:08.540Z,7.21
2018-11-29T00:21:08.512Z,7.21
2018-11-29T00:22:08.502Z,7.22
2018-11-29T00:23:08.536Z,7.29
2018-11-29T00:24:08.486Z,7.16
2018-11-29T00:25:08.517Z,7.18
2018-11-29T00:26:08.457Z,7.26
2018-11-29T00:27:08.447Z,7.08
2018-11-29T00:28:08.489Z,7.11
2018-11-29T00:29:08.424Z,7.16
2018-11-29T00:30:08.439Z,7.13
2018-11-29T00:31:08.403Z,7.13
2018-11-29T00:32:08.390Z,7.15
2018-11-29T00:33:08.381Z,7.19
2018-11-29T00:34:08.418Z,7.18
2018-11-29T00:35:08.367Z,7.13
2018-11-29T00:36:08.391Z,7.15
2018-11-29T00:37:08.339Z,7.19
2018-11-29T00:38:08.336Z,7.19
2018-11-29T00:39:08.364Z,7.10
2018-11-29T00:40:08.310Z,7.08
2018-11-29T00:41:08.295Z,7.15
2018-11-29T00:42:08.284Z,7.07
2018-11-29T00:43:08.271Z,7.08
2018-11-29T00:44:08.271Z,7.10
2018-11-29T00:45:08.298Z,7.00
2018-11-29T00:46:08.284Z,7.15
2018-11-29T00:47:08.247Z,7.10
2018-11-29T00:48:08.217Z,7.10
2018-11-29T00:49:08.254Z,7.08
2018-11-29T00:50:08.194Z,7.08
2018-11-29T00:51:08.236Z,7.13
2018-11-29T00:52:08.175Z,7.08
2018-11-29T00:53:08.163Z,7.07
2018-11-29T00:54:08.155Z,7.11
2018-11-29T00:55:08.147Z,7.01
2018-11-29T00:56:08.167Z,7.11
2018-11-29T00:57:08.168Z,7.06
2018-11-29T00:58:08.109Z,7.10
2018-11-29T00:59:08.098Z,7.10
2018-11-29T01:00:08.090Z,7.07
2018-11-29T01:01:08.078Z,7.08
2018-11-29T01:02:08.064Z,7.06
2018-11-29T01:03:08.100Z,7.04
2018-11-29T01:04:08.043Z,7.07
2018-11-29T01:05:08.095Z,7.04
2018-11-29T01:06:08.021Z,7.07
2018-11-29T01:07:08.010Z,7.04
2018-11-29T01:08:08.003Z,7.08
2018-11-29T01:09:07.991Z,7.10
2018-11-29T01:10:07.978Z,7.13
2018-11-29T01:11:08.084Z,7.08
2018-11-29T01:12:07.956Z,7.11
2018-11-29T01:13:07.945Z,7.07
2018-11-29T01:14:07.933Z,7.11
2018-11-29T01:15:07.923Z,7.11
2018-11-29T01:16:08.203Z,7.06
2018-11-29T01:17:07.902Z,7.11
2018-11-29T01:18:07.890Z,7.13
2018-11-29T01:19:07.880Z,7.15
2018-11-29T01:20:07.869Z,7.13
2018-11-29T01:21:07.858Z,7.11
2018-11-29T01:22:07.891Z,7.16
2018-11-29T01:23:07.837Z,7.13
2018-11-29T01:24:07.824Z,7.08
2018-11-29T01:25:07.813Z,7.16
2018-11-29T01:26:07.850Z,7.11
2018-11-29T01:27:07.793Z,7.10
2018-11-29T01:28:07.784Z,7.13
2018-11-29T01:29:07.772Z,7.08
2018-11-29T01:30:07.786Z,7.15
2018-11-29T01:31:07.749Z,7.08
2018-11-29T01:32:07.782Z,7.11
2018-11-29T01:33:07.728Z,7.16
2018-11-29T01:34:07.716Z,7.18
2018-11-29T01:35:07.706Z,7.18
2018-11-29T01:36:07.693Z,7.16
2018-11-29T01:37:07.684Z,7.18
2018-11-29T01:38:07.718Z,7.08
2018-11-29T01:39:07.732Z,7.18
2018-11-29T01:40:07.654Z,7.10
2018-11-29T01:41:07.640Z,7.16
2018-11-29T01:42:07.629Z,7.16
2018-11-29T01:43:07.618Z,7.16
2018-11-29T01:44:07.624Z,7.21
2018-11-29T01:45:07.652Z,7.16
2018-11-29T01:46:07.587Z,7.11
2018-11-29T01:47:07.576Z,7.15
2018-11-29T01:48:07.564Z,7.10
2018-11-29T01:49:07.574Z,7.10
2018-11-29T01:50:07.542Z,7.08
2018-11-29T01:51:07.581Z,7.13
2018-11-29T01:52:07.520Z,7.10
2018-11-29T01:53:07.512Z,7.11
2018-11-29T01:54:07.498Z,7.13
2018-11-29T01:55:07.488Z,7.18
2018-11-29T01:56:07.521Z,7.18
2018-11-29T01:57:07.466Z,7.18
2018-11-29T01:58:07.457Z,7.29
2018-11-29T01:59:07.445Z,7.15
2018-11-29T02:00:07.432Z,7.21
2018-11-29T02:01:07.470Z,7.25
2018-11-29T02:02:07.411Z,7.10
2018-11-29T02:03:07.448Z,7.15
2018-11-29T02:04:07.388Z,7.18
2018-11-29T02:05:07.388Z,7.15
2018-11-29T02:06:07.372Z,7.15
2018-11-29T02:07:07.355Z,7.11
2018-11-29T02:08:07.345Z,7.07
2018-11-29T02:09:07.380Z,7.11
2018-11-29T02:10:07.323Z,7.15
2018-11-29T02:11:07.317Z,7.06
2018-11-29T02:12:07.301Z,7.15
2018-11-29T02:13:07.290Z,7.04
2018-11-29T02:14:07.283Z,7.10
2018-11-29T02:15:07.315Z,7.03
2018-11-29T02:16:07.257Z,6.96
2018-11-29T02:17:07.247Z,7.01
2018-11-29T02:18:07.244Z,7.07
2018-11-29T02:19:07.270Z,7.10
2018-11-29T02:20:07.215Z,7.01
2018-11-29T02:21:07.255Z,7.11
2018-11-29T02:22:07.191Z,7.11
2018-11-29T02:23:07.182Z,7.08
2018-11-29T02:24:07.176Z,7.07
2018-11-29T02:25:07.158Z,7.07
2018-11-29T02:26:07.148Z,7.04
2018-11-29T02:27:07.183Z,7.00
2018-11-29T02:28:07.127Z,7.01
2018-11-29T02:29:07.119Z,7.03
2018-11-29T02:30:07.151Z,7.07
2018-11-29T02:31:07.126Z,7.13
2018-11-29T02:32:07.086Z,7.10
2018-11-29T02:33:07.072Z,7.04
2018-11-29T02:34:07.062Z,7.07
2018-11-29T02:35:07.115Z,7.06
2018-11-29T02:36:07.041Z,7.08
2018-11-29T02:37:07.028Z,7.10
2018-11-29T02:38:07.022Z,7.18
2018-11-29T02:39:07.006Z,7.11
2018-11-29T02:40:06.996Z,7.16
2018-11-29T02:41:07.048Z,7.15
2018-11-29T02:42:06.974Z,7.19
2018-11-29T02:43:06.964Z,7.25
2018-11-29T02:44:06.955Z,7.19
2018-11-29T02:45:06.942Z,7.25
2018-11-29T02:46:06.931Z,7.25
2018-11-29T02:47:06.975Z,7.21
2018-11-29T02:48:06.909Z,7.16
2018-11-29T02:49:06.898Z,7.26
2018-11-29T02:50:06.886Z,7.24
2018-11-29T02:51:06.879Z,7.22
2018-11-29T02:52:06.866Z,7.21
2018-11-29T02:53:06.901Z,7.36
2018-11-29T02:54:06.841Z,7.33
2018-11-29T02:55:06.833Z,7.22
2018-11-29T02:56:06.823Z,7.29
2018-11-29T02:57:06.810Z,7.29
2018-11-29T02:58:06.800Z,7.33
2018-11-29T02:59:06.837Z,7.22
2018-11-29T03:00:06.776Z,7.36
2018-11-29T03:01:06.768Z,7.31
2018-11-29T03:02:06.760Z,7.25
2018-11-29T03:03:06.743Z,7.39
2018-11-29T03:04:06.741Z,7.34
2018-11-29T03:05:06.774Z,7.29
2018-11-29T03:06:06.712Z,7.22
2018-11-29T03:07:06.705Z,7.34
2018-11-29T03:08:06.690Z,7.31
2018-11-29T03:09:06.678Z,7.28
2018-11-29T03:10:06.673Z,7.29
2018-11-29T03:11:06.704Z,7.25
2018-11-29T03:12:06.645Z,7.25
2018-11-29T03:13:06.635Z,7.28
2018-11-29T03:14:06.624Z,7.21
2018-11-29T03:15:06.612Z,7.19
2018-11-29T03:16:06.648Z,7.24
2018-11-29T03:17:06.590Z,7.28
2018-11-29T03:18:06.584Z,7.25
2018-11-29T03:19:06.583Z,7.28
2018-11-29T03:20:06.595Z,7.34
2018-11-29T03:21:06.546Z,7.29
2018-11-29T03:22:06.832Z,7.28
2018-11-29T03:23:06.523Z,7.28
2018-11-29T03:24:06.515Z,7.24
2018-11-29T03:25:06.503Z,7.24
2018-11-29T03:26:06.490Z,7.29
2018-11-29T03:27:06.483Z,7.28
2018-11-29T03:28:06.539Z,7.25
2018-11-29T03:29:06.494Z,7.28
2018-11-29T03:30:06.449Z,7.26
2018-11-29T03:31:06.438Z,7.33
2018-11-29T03:32:06.427Z,7.31
2018-11-29T03:33:06.418Z,7.33
2018-11-29T03:34:06.450Z,7.29
2018-11-29T03:35:06.393Z,7.26
2018-11-29T03:36:06.387Z,7.26
2018-11-29T03:37:06.376Z,7.24
2018-11-29T03:38:06.361Z,7.25
2018-11-29T03:39:06.360Z,7.24
2018-11-29T03:40:06.385Z,7.29
2018-11-29T03:41:06.331Z,7.26
2018-11-29T03:42:06.317Z,7.28
2018-11-29T03:43:06.309Z,7.24
2018-11-29T03:44:06.318Z,7.29
2018-11-29T03:45:06.292Z,7.25
2018-11-29T03:46:06.567Z,7.33
2018-11-29T03:47:06.263Z,7.26
2018-11-29T03:48:06.252Z,7.33
2018-11-29T03:49:06.242Z,7.26
2018-11-29T03:50:06.254Z,7.34
2018-11-29T03:51:06.221Z,7.29
2018-11-29T03:52:06.257Z,7.26
2018-11-29T03:53:06.198Z,7.29
2018-11-29T03:54:06.190Z,7.21
2018-11-29T03:55:06.176Z,7.26
2018-11-29T03:56:06.175Z,7.31
2018-11-29T03:57:06.154Z,7.26
2018-11-29T03:58:06.442Z,7.25
2018-11-29T03:59:06.132Z,7.25
2018-11-29T04:00:06.122Z,7.24
2018-11-29T04:01:06.146Z,7.25
2018-11-29T04:02:06.113Z,7.25
2018-11-29T04:03:06.091Z,7.28
2018-11-29T04:04:06.376Z,7.26
2018-11-29T04:05:06.093Z,7.31
2018-11-29T04:06:06.056Z,7.26
2018-11-29T04:07:06.047Z,7.28
2018-11-29T04:08:06.035Z,7.25
2018-11-29T04:09:06.024Z,7.24
2018-11-29T04:10:06.061Z,7.29
2018-11-29T04:11:05.999Z,7.37
2018-11-29T04:12:05.998Z,7.33
2018-11-29T04:13:05.980Z,7.39
2018-11-29T04:14:06.021Z,7.37
2018-11-29T04:15:05.957Z,7.36
2018-11-29T04:16:05.946Z,7.36
2018-11-29T04:17:05.935Z,7.33
2018-11-29T04:18:05.924Z,7.33
2018-11-29T04:19:05.913Z,7.29
2018-11-29T04:20:05.947Z,7.34
2018-11-29T04:21:05.937Z,7.36
2018-11-29T04:22:05.880Z,7.42
2018-11-29T04:23:05.869Z,7.43
2018-11-29T04:24:05.865Z,7.43
2018-11-29T04:25:06.064Z,7.46
2018-11-29T04:26:05.892Z,7.43
2018-11-29T04:27:05.826Z,7.34
2018-11-29T04:28:05.814Z,7.43
2018-11-29T04:29:05.803Z,7.40
2018-11-29T04:30:05.794Z,7.46
2018-11-29T04:31:05.783Z,7.43
2018-11-29T04:32:05.816Z,7.50
2018-11-29T04:33:05.761Z,7.43
2018-11-29T04:34:05.756Z,7.49
2018-11-29T04:35:05.740Z,7.50
2018-11-29T04:36:05.727Z,7.46
2018-11-29T04:37:05.716Z,7.47
2018-11-29T04:38:05.753Z,7.42
2018-11-29T04:39:05.741Z,7.54
2018-11-29T04:40:05.684Z,7.44
2018-11-29T04:41:05.672Z,7.50
2018-11-29T04:42:05.661Z,7.60
2018-11-29T04:43:05.672Z,7.52
2018-11-29T04:44:05.641Z,7.50
2018-11-29T04:45:05.678Z,7.50
2018-11-29T04:46:05.620Z,7.50
2018-11-29T04:47:05.653Z,7.55
2018-11-29T04:48:09.947Z,7.55
2018-11-29T04:49:05.588Z,7.58
2018-11-29T04:50:05.576Z,7.52
2018-11-29T04:51:05.564Z,7.54
2018-11-29T04:52:05.599Z,7.54
2018-11-29T04:53:05.550Z,7.55
2018-11-29T04:54:05.533Z,7.55
2018-11-29T04:55:05.520Z,7.55
2018-11-29T04:56:05.513Z,7.60
2018-11-29T04:57:05.501Z,7.55
2018-11-29T04:58:05.540Z,7.57
2018-11-29T04:59:05.476Z,7.55
2018-11-29T05:00:05.467Z,7.55
2018-11-29T05:01:05.455Z,7.54
2018-11-29T05:02:05.459Z,7.43
2018-11-29T05:03:05.439Z,7.43
2018-11-29T05:04:05.474Z,7.44
2018-11-29T05:05:05.422Z,7.47
2018-11-29T05:06:05.403Z,7.55
2018-11-29T05:07:05.407Z,7.52
2018-11-29T05:08:05.379Z,7.50
2018-11-29T05:09:05.370Z,7.58
2018-11-29T05:10:05.402Z,7.57
2018-11-29T05:11:05.345Z,7.55
2018-11-29T05:12:05.352Z,7.47
2018-11-29T05:13:05.324Z,7.44
2018-11-29T05:14:05.315Z,7.42
2018-11-29T05:15:05.304Z,7.50
2018-11-29T05:16:05.341Z,7.52
2018-11-29T05:17:05.296Z,7.58
2018-11-29T05:18:05.272Z,7.68
2018-11-29T05:19:05.261Z,7.60
2018-11-29T05:20:05.252Z,7.58
2018-11-29T05:21:05.236Z,7.55
2018-11-29T05:22:05.269Z,7.57
2018-11-29T05:23:05.213Z,7.64
2018-11-29T05:24:05.202Z,7.57
2018-11-29T05:25:05.191Z,7.58
2018-11-29T05:26:05.203Z,7.66
2018-11-29T05:27:05.177Z,7.61
2018-11-29T05:28:05.452Z,7.61
2018-11-29T05:29:05.147Z,7.58
2018-11-29T05:30:05.136Z,7.58
2018-11-29T05:31:05.130Z,7.50
2018-11-29T05:32:05.116Z,7.50
2018-11-29T05:33:05.109Z,7.57
2018-11-29T05:34:05.140Z,7.52
2018-11-29T05:35:05.128Z,7.47
2018-11-29T05:36:05.118Z,7.60
2018-11-29T05:37:05.060Z,7.42
2018-11-29T05:38:05.050Z,7.50
2018-11-29T05:39:05.038Z,7.52
2018-11-29T05:40:05.029Z,7.62
2018-11-29T05:41:05.063Z,7.62
2018-11-29T05:42:05.054Z,7.61
2018-11-29T05:43:04.995Z,7.64
2018-11-29T05:44:04.985Z,7.52
2018-11-29T05:45:04.981Z,7.60
2018-11-29T05:46:04.962Z,7.61
2018-11-29T05:47:04.954Z,7.57
2018-11-29T05:48:04.991Z,7.61
2018-11-29T05:49:04.976Z,7.60
2018-11-29T05:50:04.924Z,7.62
2018-11-29T05:51:04.915Z,7.58
2018-11-29T05:52:04.897Z,7.66
2018-11-29T05:53:04.888Z,7.57
2018-11-29T05:54:04.883Z,7.57
2018-11-29T05:55:04.917Z,7.61
2018-11-29T05:56:04.855Z,7.55
2018-11-29T05:57:04.843Z,7.55
2018-11-29T05:58:04.832Z,7.64
2018-11-29T05:59:04.842Z,7.58
2018-11-29T06:00:04.810Z,7.66
2018-11-29T06:01:04.852Z,7.55
2018-11-29T06:02:04.789Z,7.60
2018-11-29T06:03:04.779Z,7.52
2018-11-29T06:04:04.814Z,7.57
2018-11-29T06:05:04.758Z,7.57
2018-11-29T06:06:04.746Z,7.55
2018-11-29T06:07:05.030Z,7.49
2018-11-29T06:08:04.725Z,7.42
2018-11-29T06:09:04.713Z,7.40
2018-11-29T06:10:04.702Z,7.54
2018-11-29T06:11:04.691Z,7.44
2018-11-29T06:12:04.684Z,7.42
2018-11-29T06:13:04.972Z,7.50
2018-11-29T06:14:04.659Z,7.42
2018-11-29T06:15:04.650Z,7.40
2018-11-29T06:16:04.638Z,7.39
2018-11-29T06:17:04.626Z,7.42
2018-11-29T06:18:04.619Z,7.42
2018-11-29T06:19:04.655Z,7.43
2018-11-29T06:20:04.614Z,7.36
2018-11-29T06:21:04.696Z,7.34
2018-11-29T06:22:04.665Z,7.29
2018-11-29T06:23:05.245Z,7.28
2018-11-29T06:24:04.610Z,7.28
2018-11-29T06:25:04.545Z,7.25
2018-11-29T06:26:04.529Z,7.28
2018-11-29T06:27:04.522Z,7.21
2018-11-29T06:28:04.508Z,7.24
2018-11-29T06:29:04.496Z,7.25
2018-11-29T06:30:04.545Z,7.31
2018-11-29T06:31:04.475Z,7.26
2018-11-29T06:32:04.466Z,7.25
2018-11-29T06:33:04.452Z,7.31
2018-11-29T06:34:04.445Z,7.24
2018-11-29T06:35:04.483Z,7.21
2018-11-29T06:36:04.471Z,7.21
2018-11-29T06:37:04.419Z,7.10
2018-11-29T06:38:04.440Z,7.16
2018-11-29T06:39:04.388Z,7.18
2018-11-29T06:40:04.406Z,7.16
2018-11-29T06:41:04.562Z,7.19
2018-11-29T06:42:04.355Z,7.24
2018-11-29T06:43:04.344Z,7.15
2018-11-29T06:44:04.353Z,7.19
2018-11-29T06:45:04.324Z,7.18
2018-11-29T06:46:04.311Z,7.21
2018-11-29T06:47:04.386Z,7.18
2018-11-29T06:48:04.290Z,7.19
2018-11-29T06:49:04.279Z,7.21
2018-11-29T06:50:04.270Z,7.21
2018-11-29T06:51:04.258Z,7.11
2018-11-29T06:52:04.245Z,7.11
2018-11-29T06:53:04.280Z,7.15
2018-11-29T06:54:04.230Z,7.13
2018-11-29T06:55:04.214Z,7.16
2018-11-29T06:56:04.202Z,7.10
2018-11-29T06:57:04.194Z,7.08
2018-11-29T06:58:04.473Z,7.15
2018-11-29T06:59:04.169Z,7.10
2018-11-29T07:00:04.171Z,7.18
2018-11-29T07:01:04.151Z,7.18
2018-11-29T07:02:04.140Z,7.16
2018-11-29T07:03:04.126Z,7.19
2018-11-29T07:04:04.435Z,7.18
2018-11-29T07:05:04.105Z,7.15
2018-11-29T07:06:04.090Z,7.22
2018-11-29T07:07:04.123Z,7.24
2018-11-29T07:08:04.084Z,7.16
2018-11-29T07:09:04.085Z,7.19
2018-11-29T07:10:04.120Z,7.15
2018-11-29T07:11:04.055Z,7.15
2018-11-29T07:12:04.030Z,7.22
2018-11-29T07:13:04.094Z,7.16
2018-11-29T07:14:04.015Z,7.24
2018-11-29T07:15:04.097Z,7.29
2018-11-29T07:16:04.038Z,7.26
2018-11-29T07:17:03.976Z,7.31
2018-11-29T07:18:03.961Z,7.26
2018-11-29T07:19:03.978Z,7.16
2018-11-29T07:20:03.967Z,7.22
2018-11-29T07:21:03.931Z,7.25
2018-11-29T07:22:03.981Z,7.26
2018-11-29T07:23:03.908Z,7.29
2018-11-29T07:24:03.900Z,7.29
2018-11-29T07:25:03.884Z,7.29
2018-11-29T07:26:03.874Z,7.31
2018-11-29T07:27:03.865Z,7.34
2018-11-29T07:28:04.312Z,7.37
2018-11-29T07:29:03.846Z,7.26
2018-11-29T07:30:03.895Z,7.29
2018-11-29T07:31:03.860Z,7.29
2018-11-29T07:32:03.863Z,7.26
2018-11-29T07:33:03.802Z,7.25
2018-11-29T07:34:03.788Z,7.29
2018-11-29T07:35:03.773Z,7.34
2018-11-29T07:36:03.848Z,7.31
2018-11-29T07:37:03.999Z,7.26
2018-11-29T07:38:03.785Z,7.29
2018-11-29T07:39:03.833Z,7.31
2018-11-29T07:40:03.759Z,7.33
2018-11-29T07:41:03.786Z,7.31
2018-11-29T07:42:04.396Z,7.31
2018-11-29T07:43:04.259Z,7.33
2018-11-29T07:44:03.681Z,7.34
2018-11-29T07:45:03.759Z,7.44
2018-11-29T07:46:03.689Z,7.42
2018-11-29T07:47:03.695Z,7.46
2018-11-29T07:48:03.649Z,7.62
2018-11-29T07:49:03.810Z,7.58
2018-11-29T07:50:03.610Z,7.61
2018-11-29T07:51:03.644Z,7.60
2018-11-29T07:52:03.597Z,7.49
2018-11-29T07:53:03.633Z,7.55
2018-11-29T07:54:03.564Z,7.49
2018-11-29T07:55:03.566Z,7.46
2018-11-29T07:56:03.554Z,7.40
2018-11-29T07:57:04.541Z,7.46
2018-11-29T07:58:05.857Z,7.52
2018-11-29T07:59:04.644Z,7.54
2018-11-29T08:00:03.585Z,7.44
2018-11-29T08:01:04.410Z,7.44
2018-11-29T08:02:03.609Z,7.39
2018-11-29T08:03:03.797Z,7.40
2018-11-29T08:04:04.274Z,7.46
2018-11-29T08:05:03.524Z,7.42
2018-11-29T08:06:04.489Z,7.44
2018-11-29T08:07:06.780Z,7.42
2018-11-29T08:08:05.398Z,7.40
2018-11-29T08:09:07.270Z,7.46
2018-11-29T08:10:06.410Z,7.50
2018-11-29T08:11:04.358Z,7.43
2018-11-29T08:12:04.741Z,7.42
2018-11-29T08:13:04.604Z,7.43
2018-11-29T08:14:03.690Z,7.33
2018-11-29T08:15:04.044Z,7.34
2018-11-29T08:16:03.503Z,7.43
2018-11-29T08:17:03.382Z,7.46
2018-11-29T08:18:03.341Z,7.46
2018-11-29T08:19:03.617Z,7.40
2018-11-29T08:20:03.328Z,7.55
2018-11-29T08:21:03.272Z,7.39
2018-11-29T08:22:03.398Z,7.43
2018-11-29T08:23:03.256Z,7.42
2018-11-29T08:24:03.515Z,7.43
2018-11-29T08:25:03.223Z,7.49
2018-11-29T08:26:03.229Z,7.54
2018-11-29T08:27:03.201Z,7.57
2018-11-29T08:28:03.329Z,7.55
2018-11-29T08:29:03.193Z,7.61
2018-11-29T08:30:03.163Z,7.52
2018-11-29T08:31:03.198Z,7.58
2018-11-29T08:32:03.147Z,7.55
2018-11-29T08:33:03.201Z,7.57
2018-11-29T08:34:03.147Z,7.66
2018-11-29T08:35:03.116Z,7.61
2018-11-29T08:36:03.145Z,7.62
2018-11-29T08:37:03.198Z,7.94
2018-11-29T08:38:03.651Z,8.05
2018-11-29T08:39:03.070Z,8.31
2018-11-29T08:40:03.053Z,8.52
2018-11-29T08:41:03.100Z,8.53
2018-11-29T08:42:03.040Z,8.65
2018-11-29T08:43:03.045Z,8.86
2018-11-29T08:44:03.019Z,8.83
2018-11-29T08:45:03.085Z,8.85
2018-11-29T08:46:03.049Z,8.89
2018-11-29T08:47:03.106Z,8.86
2018-11-29T08:48:02.977Z,8.75
2018-11-29T08:49:02.955Z,8.93
2018-11-29T08:50:02.942Z,8.85
2018-11-29T08:51:02.959Z,8.63
2018-11-29T08:52:02.963Z,8.55
2018-11-29T08:53:02.946Z,8.31
2018-11-29T08:54:02.904Z,8.09
2018-11-29T08:55:02.894Z,7.95
2018-11-29T08:56:02.955Z,7.86
2018-11-29T08:57:02.999Z,7.92
2018-11-29T08:58:02.908Z,7.78
2018-11-29T08:59:02.859Z,7.78
2018-11-29T09:00:02.831Z,7.83
2018-11-29T09:01:02.825Z,7.81
2018-11-29T09:02:02.848Z,7.77
2018-11-29T09:03:02.846Z,7.80
2018-11-29T09:04:02.845Z,7.83
2018-11-29T09:05:02.846Z,7.74
2018-11-29T09:06:02.769Z,7.73
2018-11-29T09:07:02.759Z,7.74
2018-11-29T09:08:02.774Z,7.76
2018-11-29T09:09:02.749Z,7.77
2018-11-29T09:10:02.778Z,7.73
2018-11-29T09:11:02.709Z,7.77
2018-11-29T09:12:02.699Z,7.78
2018-11-29T09:13:02.765Z,7.73
2018-11-29T09:14:02.685Z,7.73
2018-11-29T09:15:03.064Z,7.78
2018-11-29T09:16:02.655Z,7.66
2018-11-29T09:17:02.649Z,7.68
2018-11-29T09:18:02.691Z,7.61
2018-11-29T09:19:02.634Z,7.74
2018-11-29T09:20:02.669Z,7.66
2018-11-29T09:21:02.633Z,7.74
2018-11-29T09:22:02.612Z,7.77
2018-11-29T09:23:02.677Z,7.80
2018-11-29T09:24:02.587Z,7.68
2018-11-29T09:25:02.558Z,7.66
2018-11-29T09:26:02.605Z,7.66
2018-11-29T09:27:02.547Z,7.66
2018-11-29T09:28:02.528Z,7.62
2018-11-29T09:29:02.513Z,7.66
2018-11-29T09:30:02.498Z,7.76
2018-11-29T09:31:02.507Z,7.68
2018-11-29T09:32:02.517Z,7.69
2018-11-29T09:33:02.463Z,7.77
2018-11-29T09:34:02.480Z,7.74
2018-11-29T09:35:02.445Z,7.68
2018-11-29T09:36:02.483Z,7.76
2018-11-29T09:37:02.421Z,7.68
2018-11-29T09:38:02.413Z,7.74
2018-11-29T09:39:02.395Z,7.77
2018-11-29T09:40:02.392Z,7.76
2018-11-29T09:41:02.393Z,7.74
2018-11-29T09:42:03.044Z,7.71
2018-11-29T09:43:02.351Z,7.77
2018-11-29T09:44:02.353Z,7.74
2018-11-29T09:45:02.381Z,7.87
2018-11-29T09:46:02.356Z,7.87
2018-11-29T09:47:02.315Z,7.78
2018-11-29T09:48:02.344Z,7.88
2018-11-29T09:49:02.338Z,7.86
2018-11-29T09:50:02.284Z,7.95
2018-11-29T09:51:02.355Z,7.80
2018-11-29T09:52:02.258Z,7.88
2018-11-29T09:53:02.261Z,7.77
2018-11-29T09:54:02.297Z,7.87
2018-11-29T09:55:02.222Z,7.80
2018-11-29T09:56:02.211Z,7.83
2018-11-29T09:57:02.267Z,7.91
2018-11-29T09:58:02.243Z,7.78
2018-11-29T09:59:02.177Z,8.01
2018-11-29T10:00:02.168Z,8.20
2018-11-29T10:01:02.160Z,8.32
2018-11-29T10:02:02.144Z,8.21
2018-11-29T10:03:02.137Z,8.56
2018-11-29T10:04:02.174Z,8.52
2018-11-29T10:05:02.128Z,8.44
2018-11-29T10:06:02.169Z,8.68
2018-11-29T10:07:02.090Z,8.74
2018-11-29T10:08:02.127Z,8.60
2018-11-29T10:09:02.067Z,8.68
2018-11-29T10:10:02.064Z,8.85
2018-11-29T10:11:02.068Z,8.86
2018-11-29T10:12:02.036Z,8.86
2018-11-29T10:13:02.042Z,8.52
2018-11-29T10:14:02.063Z,8.50
2018-11-29T10:15:02.039Z,8.75
2018-11-29T10:16:01.995Z,8.77
2018-11-29T10:17:01.979Z,8.93
2018-11-29T10:18:01.969Z,8.90
2018-11-29T10:19:01.963Z,8.86
2018-11-29T10:20:02.046Z,8.89
2018-11-29T10:21:01.933Z,8.62
2018-11-29T10:22:01.928Z,8.52
2018-11-29T10:23:01.909Z,8.59
2018-11-29T10:24:01.903Z,8.50
2018-11-29T10:25:01.908Z,8.44
2018-11-29T10:26:01.949Z,8.37
2018-11-29T10:27:01.893Z,8.28
2018-11-29T10:28:02.046Z,8.19
2018-11-29T10:29:01.856Z,8.02
2018-11-29T10:30:01.837Z,8.01
2018-11-29T10:31:01.910Z,7.92
2018-11-29T10:32:01.830Z,7.87
2018-11-29T10:33:01.822Z,7.86
2018-11-29T10:34:01.792Z,7.99
2018-11-29T10:35:01.789Z,7.87
2018-11-29T10:36:01.845Z,7.94
2018-11-29T10:37:01.830Z,7.87
2018-11-29T10:38:01.800Z,8.01
2018-11-29T10:39:01.739Z,7.99
2018-11-29T10:40:01.765Z,7.84
2018-11-29T10:41:01.758Z,7.92
2018-11-29T10:42:01.724Z,7.98
2018-11-29T10:43:01.789Z,7.94
2018-11-29T10:44:01.688Z,8.01
2018-11-29T10:45:01.666Z,8.02
2018-11-29T10:46:01.662Z,7.92
2018-11-29T10:47:01.659Z,7.98
2018-11-29T10:48:01.640Z,7.92
2018-11-29T10:49:01.700Z,8.01
2018-11-29T10:50:01.648Z,8.04
2018-11-29T10:51:01.673Z,8.01
2018-11-29T10:52:01.607Z,7.92
2018-11-29T10:53:01.609Z,7.94
2018-11-29T10:54:01.581Z,7.84
2018-11-29T10:55:01.588Z,7.87
2018-11-29T10:56:01.586Z,7.84
2018-11-29T10:57:01.641Z,7.94
2018-11-29T10:58:01.551Z,7.91
2018-11-29T10:59:01.530Z,7.86
2018-11-29T11:00:01.526Z,7.91
2018-11-29T11:01:01.538Z,7.87
2018-11-29T11:02:01.487Z,7.96
2018-11-29T11:03:01.530Z,7.87
2018-11-29T11:04:01.494Z,7.87
2018-11-29T11:05:01.463Z,7.96
2018-11-29T11:06:01.447Z,7.88
2018-11-29T11:07:01.433Z,7.81
2018-11-29T11:08:07.828Z,7.92
2018-11-29T11:09:02.457Z,7.88
2018-11-29T11:10:01.405Z,7.86
2018-11-29T11:11:01.382Z,7.92
2018-11-29T11:12:01.379Z,8.01
2018-11-29T11:13:01.365Z,7.95
2018-11-29T11:14:01.396Z,7.88
2018-11-29T11:15:01.384Z,7.92
2018-11-29T11:16:01.336Z,7.87
2018-11-29T11:17:01.371Z,7.87
2018-11-29T11:18:01.311Z,7.87
2018-11-29T11:19:01.300Z,7.98
2018-11-29T11:20:01.328Z,7.98
2018-11-29T11:21:01.325Z,8.09
2018-11-29T11:22:01.266Z,7.99
2018-11-29T11:23:01.255Z,8.09
2018-11-29T11:24:01.250Z,8.02
2018-11-29T11:25:01.452Z,8.01
2018-11-29T11:26:01.281Z,7.92
2018-11-29T11:27:01.215Z,7.98
2018-11-29T11:28:01.198Z,7.91
2018-11-29T11:29:01.187Z,7.98
2018-11-29T11:30:01.252Z,8.01
2018-11-29T11:31:01.174Z,7.92
2018-11-29T11:32:01.214Z,7.95
2018-11-29T11:33:01.150Z,7.91
2018-11-29T11:34:01.127Z,7.92
2018-11-29T11:35:01.119Z,7.96
2018-11-29T11:36:01.110Z,7.86
2018-11-29T11:37:01.099Z,8.01
2018-11-29T11:38:01.140Z,8.01
2018-11-29T11:39:01.118Z,7.96
2018-11-29T11:40:01.180Z,7.87
2018-11-29T11:41:01.054Z,7.96
2018-11-29T11:42:01.092Z,7.88
2018-11-29T11:43:06.816Z,7.88
2018-11-29T11:44:02.022Z,8.01
2018-11-29T11:45:01.018Z,7.92
2018-11-29T11:46:01.009Z,7.98
2018-11-29T11:47:00.986Z,7.87
2018-11-29T11:48:03.439Z,7.88
2018-11-29T11:49:01.206Z,7.96
2018-11-29T11:50:02.624Z,7.95
2018-11-29T11:51:00.962Z,7.87
2018-11-29T11:52:00.941Z,7.92
2018-11-29T11:53:00.924Z,7.91
2018-11-29T11:54:00.957Z,7.86
2018-11-29T11:55:00.903Z,7.99
2018-11-29T11:56:00.954Z,7.96
2018-11-29T11:57:00.913Z,7.96
2018-11-29T11:58:00.866Z,7.96
2018-11-29T11:59:00.863Z,7.81
2018-11-29T12:00:00.847Z,7.88
2018-11-29T12:01:00.891Z,7.92
2018-11-29T12:02:00.873Z,7.77
2018-11-29T12:03:00.818Z,7.80
2018-11-29T12:04:00.806Z,7.77
2018-11-29T12:05:00.796Z,7.80
2018-11-29T12:06:00.779Z,7.77
2018-11-29T12:07:00.773Z,7.78
2018-11-29T12:08:00.805Z,7.80
2018-11-29T12:09:00.802Z,7.74
2018-11-29T12:10:00.737Z,7.78
2018-11-29T12:11:00.737Z,7.69
2018-11-29T12:12:00.721Z,7.78
2018-11-29T12:13:01.012Z,7.66
2018-11-29T12:14:00.721Z,7.71
2018-11-29T12:15:00.692Z,7.71
2018-11-29T12:16:00.669Z,7.74
2018-11-29T12:17:00.660Z,7.71
2018-11-29T12:18:00.672Z,7.77
2018-11-29T12:19:02.461Z,7.78
2018-11-29T12:20:00.682Z,7.71
2018-11-29T12:21:00.637Z,7.74
2018-11-29T12:22:00.609Z,7.77
2018-11-29T12:23:00.617Z,7.73
2018-11-29T12:24:00.593Z,7.61
2018-11-29T12:25:00.574Z,7.66
2018-11-29T12:26:00.665Z,7.69
2018-11-29T12:27:00.605Z,7.64
2018-11-29T12:28:00.554Z,7.60
2018-11-29T12:29:00.604Z,7.58
2018-11-29T12:30:00.519Z,7.57
2018-11-29T12:31:00.508Z,7.58
2018-11-29T12:32:00.492Z,7.57
2018-11-29T12:33:00.488Z,7.55
2018-11-29T12:34:00.525Z,7.69
2018-11-29T12:35:00.461Z,7.62
2018-11-29T12:36:00.452Z,7.71
2018-11-29T12:37:00.437Z,7.77
2018-11-29T12:38:00.441Z,7.81
2018-11-29T12:39:00.470Z,7.80
2018-11-29T12:40:00.521Z,7.77
2018-11-29T12:41:00.423Z,7.77
2018-11-29T12:42:00.388Z,7.78
2018-11-29T12:43:00.374Z,7.77
2018-11-29T12:44:00.365Z,7.95
2018-11-29T12:45:00.399Z,7.91
2018-11-29T12:46:00.338Z,7.91
2018-11-29T12:47:00.329Z,7.92
2018-11-29T12:48:00.367Z,8.05
2018-11-29T12:49:00.359Z,7.92
2018-11-29T12:50:00.303Z,7.87
2018-11-29T12:51:00.293Z,7.88
2018-11-29T12:52:00.279Z,7.95
2018-11-29T12:53:00.313Z,7.95
2018-11-29T12:54:00.280Z,7.84
2018-11-29T12:55:00.245Z,7.87
2018-11-29T12:56:00.231Z,7.87
2018-11-29T12:57:00.317Z,7.87
2018-11-29T12:58:05.471Z,7.96
2018-11-29T12:59:01.235Z,8.12
2018-11-29T13:00:00.238Z,8.09
2018-11-29T13:01:02.100Z,8.12
2018-11-29T13:02:00.281Z,8.12
2018-11-29T13:03:00.163Z,8.17
2018-11-29T13:04:00.154Z,8.10
2018-11-29T13:05:00.142Z,8.20
2018-11-29T13:06:00.173Z,8.20
2018-11-29T13:07:00.123Z,8.10
2018-11-29T13:08:00.097Z,8.26
2018-11-29T13:09:00.094Z,8.24
2018-11-29T13:10:00.081Z,8.13
2018-11-29T13:11:00.117Z,8.02
2018-11-29T13:12:00.124Z,8.04
2018-11-29T13:13:00.111Z,8.02
2018-11-29T13:14:00.069Z,8.16
2018-11-29T13:15:00.182Z,8.02
2018-11-29T13:16:00.016Z,8.01
2018-11-29T13:17:00.020Z,8.04
2018-11-29T13:18:00.046Z,8.12